Accueil
METAR-TAF:

METAR-TAF

Aéroports :

Aéroport Otto-Lilienthal de Berlin-Tegel

Berlin, Allemagne

latitude: 52-34N, longitude: 013-19E, altitude: 37 m

Observation

Le bulletin a été fait il y a 42 minutes, à 03:20 UTC
Vent 4 kt de est/nord-est, variant entre nord/nord-est et est
Température 19°C
Humidité 78%
Pression 1019 hPa
Visibilité 10 km ou plus
pas de nuages en-dessous de 1500 mètres et pas de cumulonimbus.

METAR: EDDT 110320Z 06004KT 020V100 CAVOK 19/15 Q1019

Heure: 06:02 (04:02 UTC)

Prévision

Le bulletin a été fait il y a 5 heures et 2 minutes, à 23:00 UTC
Prévision valable du 11 à 00 UTC au 11 à 24 UTC
Vent 4 kt de est/nord-est
Visibilité 10 km ou plus
pas de nuages en-dessous de 1500 mètres et pas de cumulonimbus.
Evoluant progressivement
du 11 à 07 UTC au 11 à 09 UTC
Vent 9 kt de est

TAF: EDDT 102300Z 1100/1124 06004KT CAVOK BECMG 1107/1109 08009KT

Observations et prévisions météorologiques de plus de 4000 aéroports (messages METAR et TAF).

Les stations disponibles sont représentées par des disques jaunes et rouges sur la carte.

Passer la souris dessus pour voir le nom de la station.

Cliquer dessus pour voir les observations et prévisions météorologiques.

Pour changer de carte: cliquez sur les boutons verts avec une croix noire pour zoomer, sur le bouton vert avec un tiret pour effectuer un zoom arrière, ou sur les flèches vertes pour les cartes adjacentes.


METAR-TAF: